createdAt,value
2019-05-10T00:02:11.500Z,12.10
2019-05-10T00:04:42.845Z,14.37
2019-05-10T00:07:14.119Z,12.13
2019-05-10T00:09:43.306Z,11.37
2019-05-10T00:12:14.549Z,12.73
2019-05-10T00:14:45.858Z,12.77
2019-05-10T00:17:17.116Z,11.70
2019-05-10T00:19:46.811Z,12.77
2019-05-10T00:22:16.372Z,10.73
2019-05-10T00:25:02.449Z,16.90
2019-05-10T00:27:18.241Z,11.77
2019-05-10T00:29:47.825Z,11.70
2019-05-10T00:32:17.340Z,10.03
2019-05-10T00:34:46.864Z,10.00
2019-05-10T00:37:16.453Z,11.37
2019-05-10T00:39:46.038Z,14.53
2019-05-10T00:42:15.664Z,15.80
2019-05-10T00:44:45.185Z,13.20
2019-05-10T00:47:14.748Z,15.07
2019-05-10T00:49:44.164Z,13.37
2019-05-10T00:52:13.703Z,11.30
2019-05-10T00:54:43.189Z,11.97
2019-05-10T00:57:12.601Z,12.70
2019-05-10T00:59:42.030Z,12.83
2019-05-10T01:02:11.497Z,14.20
2019-05-10T01:04:40.903Z,11.27
2019-05-10T01:07:10.379Z,12.00
2019-05-10T01:09:39.801Z,9.30
2019-05-10T01:12:09.235Z,14.33
2019-05-10T01:14:38.662Z,10.33
2019-05-10T01:17:08.278Z,12.63
2019-05-10T01:19:37.676Z,12.77
2019-05-10T01:22:07.351Z,12.27
2019-05-10T01:24:36.798Z,12.07
2019-05-10T01:27:06.373Z,13.40
2019-05-10T01:29:35.817Z,12.73
2019-05-10T01:32:05.287Z,13.93
2019-05-10T01:34:34.688Z,12.23
2019-05-10T01:37:04.342Z,14.70
2019-05-10T01:39:34.883Z,16.67
2019-05-10T01:42:04.849Z,14.40
2019-05-10T01:44:34.302Z,14.77
2019-05-10T01:47:03.765Z,13.80
2019-05-10T01:49:33.385Z,13.13
2019-05-10T01:52:02.897Z,12.97
2019-05-10T01:54:32.411Z,15.07
2019-05-10T01:57:01.928Z,14.07
2019-05-10T01:59:31.424Z,14.97
2019-05-10T02:02:00.948Z,17.17
2019-05-10T02:04:30.526Z,12.93
2019-05-10T02:07:00.014Z,12.17
2019-05-10T02:09:33.085Z,11.67
2019-05-10T02:12:00.658Z,14.30
2019-05-10T02:14:30.079Z,14.93
2019-05-10T02:16:59.559Z,15.10
2019-05-10T02:19:28.960Z,13.83
2019-05-10T02:21:58.471Z,13.13
2019-05-10T02:24:27.970Z,14.00
2019-05-10T02:26:57.408Z,14.23
2019-05-10T02:29:26.880Z,13.80
2019-05-10T02:31:56.295Z,14.20
2019-05-10T02:34:25.696Z,13.53
2019-05-10T02:36:55.195Z,17.00
2019-05-10T02:39:24.679Z,18.90
2019-05-10T02:41:54.159Z,20.47
2019-05-10T02:44:23.650Z,17.20
2019-05-10T02:46:53.070Z,17.13
2019-05-10T02:49:22.598Z,19.30
2019-05-10T02:51:51.994Z,15.40
2019-05-10T02:54:21.719Z,14.87
2019-05-10T02:56:53.678Z,14.63
2019-05-10T02:59:23.804Z,16.10
2019-05-10T03:01:56.883Z,14.10
2019-05-10T03:04:27.512Z,14.83
2019-05-10T03:07:00.137Z,18.33
2019-05-10T03:09:31.875Z,13.57
2019-05-10T03:12:05.508Z,13.27
2019-05-10T03:14:37.988Z,17.37
2019-05-10T03:17:09.465Z,22.63
2019-05-10T03:19:40.014Z,20.27
2019-05-10T03:22:09.554Z,21.70
2019-05-10T03:24:38.969Z,22.97
2019-05-10T03:27:08.475Z,22.20
2019-05-10T03:29:37.930Z,22.80
2019-05-10T03:32:07.503Z,21.83
2019-05-10T03:34:37.035Z,27.27
2019-05-10T03:37:06.629Z,25.37
2019-05-10T03:39:36.082Z,23.63
2019-05-10T03:42:05.609Z,24.27
2019-05-10T03:44:35.087Z,23.60
2019-05-10T03:47:04.626Z,23.10
2019-05-10T03:49:34.075Z,24.27
2019-05-10T03:52:03.547Z,26.73
2019-05-10T03:54:33.117Z,27.10
2019-05-10T03:57:12.773Z,26.07
2019-05-10T03:59:34.970Z,23.50
2019-05-10T04:02:05.439Z,24.87
2019-05-10T04:04:35.526Z,27.13
2019-05-10T04:07:05.049Z,26.33
2019-05-10T04:09:34.577Z,29.27
2019-05-10T04:12:04.131Z,29.03
2019-05-10T04:14:33.728Z,25.93
2019-05-10T04:17:03.213Z,25.30
2019-05-10T04:19:32.638Z,31.70
2019-05-10T04:22:02.360Z,26.17
2019-05-10T04:24:36.048Z,26.83
2019-05-10T04:27:03.169Z,27.73
2019-05-10T04:29:32.567Z,25.87
2019-05-10T04:32:02.047Z,23.10
2019-05-10T04:34:32.967Z,26.07
2019-05-10T04:37:02.477Z,26.80
2019-05-10T04:39:31.988Z,29.60
2019-05-10T04:42:01.448Z,28.23
2019-05-10T04:44:31.006Z,31.20
2019-05-10T04:47:00.507Z,26.63
2019-05-10T04:49:29.973Z,27.43
2019-05-10T04:51:59.743Z,26.10
2019-05-10T04:54:29.215Z,27.57
2019-05-10T04:57:00.192Z,27.47
2019-05-10T04:59:30.005Z,27.70
2019-05-10T05:02:00.269Z,27.27
2019-05-10T05:04:30.887Z,28.17
2019-05-10T05:07:00.423Z,30.47
2019-05-10T05:09:29.965Z,30.73
2019-05-10T05:11:59.636Z,29.57
2019-05-10T05:14:29.242Z,28.40
2019-05-10T05:16:58.863Z,30.97
2019-05-10T05:19:28.605Z,27.03
2019-05-10T05:21:58.139Z,25.63
2019-05-10T05:24:27.679Z,29.63
2019-05-10T05:26:57.244Z,30.13
2019-05-10T05:29:26.703Z,29.57
2019-05-10T05:32:01.178Z,28.47
2019-05-10T05:34:27.562Z,25.43
2019-05-10T05:36:57.118Z,25.70
2019-05-10T05:39:26.663Z,25.10
2019-05-10T05:41:57.027Z,26.60
2019-05-10T05:44:27.872Z,24.67
2019-05-10T05:46:57.742Z,23.87
2019-05-10T05:49:27.291Z,25.63
2019-05-10T05:51:56.772Z,27.43
2019-05-10T05:54:26.160Z,23.33
2019-05-10T05:56:55.700Z,23.20
2019-05-10T05:59:26.265Z,26.97
2019-05-10T06:02:00.670Z,25.70
2019-05-10T06:04:27.663Z,25.93
2019-05-10T06:06:59.143Z,26.40
2019-05-10T06:09:31.936Z,24.50
2019-05-10T06:11:59.481Z,23.60
2019-05-10T06:14:29.155Z,24.83
2019-05-10T06:16:58.671Z,25.07
2019-05-10T06:19:29.622Z,24.70
2019-05-10T06:22:04.598Z,24.43
2019-05-10T06:24:34.210Z,23.13
2019-05-10T06:27:03.466Z,22.07
2019-05-10T06:29:33.153Z,22.83
2019-05-10T06:32:02.657Z,24.27
2019-05-10T06:34:38.500Z,23.00
2019-05-10T06:37:03.455Z,23.87
2019-05-10T06:39:32.991Z,24.50
2019-05-10T06:42:02.519Z,26.97
2019-05-10T06:44:33.151Z,22.23
2019-05-10T06:47:08.421Z,24.43
2019-05-10T06:49:34.023Z,22.97
2019-05-10T06:52:03.442Z,28.40
2019-05-10T06:54:32.908Z,24.33
2019-05-10T06:57:02.414Z,26.00
2019-05-10T06:59:31.895Z,25.87
2019-05-10T07:02:01.394Z,38.27
2019-05-10T07:04:36.038Z,39.33
2019-05-10T07:07:02.062Z,40.23
2019-05-10T07:10:00.022Z,38.23
2019-05-10T07:12:02.579Z,38.40
2019-05-10T07:14:32.175Z,39.60
2019-05-10T07:17:03.036Z,35.97
2019-05-10T07:19:34.783Z,31.40
2019-05-10T07:22:04.189Z,27.07
2019-05-10T07:24:33.642Z,26.13
2019-05-10T07:27:05.755Z,23.80
2019-05-10T07:29:41.838Z,24.37
2019-05-10T07:32:05.770Z,16.27
2019-05-10T07:34:35.236Z,20.33
2019-05-10T07:37:04.844Z,17.37
2019-05-10T07:39:34.254Z,19.60
2019-05-10T07:42:06.702Z,18.83
2019-05-10T07:44:35.299Z,19.23
2019-05-10T07:47:04.818Z,15.30
2019-05-10T07:49:34.398Z,13.77
2019-05-10T07:52:04.505Z,12.40
2019-05-10T07:54:37.381Z,13.07
2019-05-10T07:57:05.725Z,13.90
2019-05-10T07:59:49.577Z,19.33
2019-05-10T08:02:12.877Z,17.73
2019-05-10T08:04:38.515Z,15.60
2019-05-10T08:07:10.459Z,15.30
2019-05-10T08:09:44.819Z,16.20
2019-05-10T08:12:12.888Z,17.80
2019-05-10T08:14:44.551Z,18.40
2019-05-10T08:17:13.823Z,18.47
2019-05-10T08:19:43.294Z,16.77
2019-05-10T08:22:14.808Z,16.23
2019-05-10T08:24:52.196Z,19.10
2019-05-10T08:27:15.430Z,20.00
2019-05-10T08:29:45.119Z,18.03
2019-05-10T08:32:14.556Z,21.63
2019-05-10T08:34:51.728Z,17.17
2019-05-10T08:37:19.315Z,18.82
2019-05-10T08:39:49.494Z,19.50
2019-05-10T08:42:34.677Z,18.13
2019-05-10T08:45:01.456Z,17.53
2019-05-10T08:47:26.760Z,17.87
2019-05-10T08:49:59.484Z,15.83
2019-05-10T08:52:26.938Z,17.00
2019-05-10T08:54:55.281Z,16.20
2019-05-10T08:57:25.123Z,16.33
2019-05-10T09:00:06.930Z,16.97
2019-05-10T09:02:29.279Z,15.45
2019-05-10T09:04:57.330Z,17.70
2019-05-10T09:07:29.386Z,17.80
2019-05-10T09:09:58.068Z,19.53
2019-05-10T09:12:29.530Z,18.53
2019-05-10T09:15:06.370Z,19.30
2019-05-10T09:17:32.336Z,19.43
2019-05-10T09:20:02.771Z,19.60
2019-05-10T09:22:38.412Z,22.37
2019-05-10T09:25:04.428Z,21.50
2019-05-10T09:27:34.095Z,25.00
2019-05-10T09:30:08.040Z,25.37
2019-05-10T09:32:39.684Z,19.83
2019-05-10T09:35:09.228Z,17.47
2019-05-10T09:37:39.101Z,17.20
2019-05-10T09:40:10.022Z,15.93
2019-05-10T09:42:43.180Z,14.70
2019-05-10T09:45:12.851Z,12.80
2019-05-10T09:47:43.694Z,13.37
2019-05-10T09:50:13.896Z,13.07
2019-05-10T09:52:43.393Z,13.27
2019-05-10T09:55:14.801Z,13.23
2019-05-10T09:57:44.371Z,14.07
2019-05-10T10:00:14.446Z,13.13
2019-05-10T10:02:47.819Z,13.30
2019-05-10T10:05:17.789Z,13.60
2019-05-10T10:07:48.146Z,13.22
2019-05-10T10:10:28.610Z,14.43
2019-05-10T10:12:49.216Z,14.57
2019-05-10T10:15:28.433Z,15.50
2019-05-10T10:17:50.179Z,15.53
2019-05-10T10:20:19.800Z,16.50
2019-05-10T10:22:54.287Z,14.93
2019-05-10T10:25:21.644Z,15.32
2019-05-10T10:27:51.283Z,14.27
2019-05-10T10:30:21.652Z,12.43
2019-05-10T10:32:51.436Z,10.00
2019-05-10T10:35:26.579Z,11.83
2019-05-10T10:37:52.370Z,10.90
2019-05-10T10:40:21.992Z,11.90
2019-05-10T10:42:51.605Z,10.70
2019-05-10T10:45:21.298Z,12.25
2019-05-10T10:47:50.825Z,10.48
2019-05-10T10:50:20.228Z,11.03
2019-05-10T10:52:49.777Z,10.07
2019-05-10T10:55:19.342Z,9.78
2019-05-10T10:57:48.932Z,8.15
2019-05-10T11:00:23.623Z,8.90
2019-05-10T11:02:53.715Z,8.13
2019-05-10T11:05:23.289Z,7.97
2019-05-10T11:07:53.103Z,9.50
2019-05-10T11:10:25.645Z,6.80
2019-05-10T11:12:56.276Z,7.55
2019-05-10T11:15:32.989Z,7.17
2019-05-10T11:18:00.524Z,7.47
2019-05-10T11:20:31.867Z,8.93
2019-05-10T11:23:01.556Z,9.33
2019-05-10T11:25:31.107Z,8.35
2019-05-10T11:28:01.815Z,7.87
2019-05-10T11:30:32.496Z,8.83
2019-05-10T11:33:02.415Z,8.50
2019-05-10T11:35:34.707Z,7.92
2019-05-10T11:38:06.748Z,7.80
2019-05-10T11:40:35.303Z,7.97
2019-05-10T11:43:05.049Z,8.07
2019-05-10T11:45:36.692Z,8.25
2019-05-10T11:48:06.090Z,8.77
2019-05-10T11:50:35.892Z,8.13
2019-05-10T11:53:07.003Z,7.70
2019-05-10T11:55:40.230Z,7.80
2019-05-10T11:58:12.219Z,11.20
2019-05-10T12:00:41.342Z,8.20
2019-05-10T12:03:15.424Z,9.68
2019-05-10T12:05:42.737Z,16.52
2019-05-10T12:08:13.145Z,9.53
2019-05-10T12:10:52.638Z,9.75
2019-05-10T12:15:46.907Z,8.97
2019-05-10T12:18:16.428Z,8.67
2019-05-10T12:20:54.732Z,10.40
2019-05-10T12:23:22.607Z,9.13
2019-05-10T12:26:16.348Z,8.95
2019-05-10T12:26:17.889Z,9.38
2019-05-10T12:28:24.064Z,9.00
2019-05-10T12:30:51.204Z,8.23
2019-05-10T12:33:25.066Z,8.87
2019-05-10T12:35:52.101Z,9.17
2019-05-10T12:38:23.520Z,11.20
2019-05-10T12:40:52.891Z,12.80
2019-05-10T12:43:22.449Z,12.43
2019-05-10T12:45:52.054Z,11.93
2019-05-10T12:48:23.592Z,12.67
2019-05-10T12:50:57.966Z,12.17
2019-05-10T12:53:23.938Z,11.40
2019-05-10T12:55:53.427Z,11.07
2019-05-10T12:58:22.999Z,9.53
2019-05-10T13:00:54.806Z,9.63
2019-05-10T13:03:31.671Z,9.80
2019-05-10T13:05:56.986Z,10.10
2019-05-10T13:08:26.340Z,9.87
2019-05-10T13:10:55.681Z,8.77
2019-05-10T13:13:29.803Z,8.10
2019-05-10T13:15:56.127Z,12.97
2019-05-10T13:18:49.212Z,10.57
2019-05-10T13:20:57.649Z,591.30
2019-05-10T13:23:27.107Z,315.87
2019-05-10T13:25:57.594Z,62.17
2019-05-10T13:28:26.932Z,8.98
2019-05-10T13:30:59.833Z,27.35
2019-05-10T13:33:29.252Z,8.30
2019-05-10T13:35:59.031Z,8.55
2019-05-10T13:38:28.664Z,17.48
2019-05-10T13:40:58.086Z,8.48
2019-05-10T13:43:28.364Z,10.03
2019-05-10T13:45:58.103Z,9.05
2019-05-10T13:48:27.585Z,12.23
2019-05-10T13:50:57.110Z,9.80
2019-05-10T13:53:26.574Z,14.98
2019-05-10T13:55:56.047Z,8.90
2019-05-10T13:58:25.520Z,9.78
2019-05-10T14:00:54.996Z,9.63
2019-05-10T14:03:24.478Z,9.47
2019-05-10T14:05:54.058Z,9.70
2019-05-10T14:08:23.418Z,8.83
2019-05-10T14:10:55.869Z,9.13
2019-05-10T14:13:24.203Z,8.27
2019-05-10T14:15:53.652Z,7.92
2019-05-10T14:18:23.169Z,5.53
2019-05-10T14:20:52.647Z,6.05
2019-05-10T14:23:22.150Z,5.90
2019-05-10T14:25:51.621Z,7.13
2019-05-10T14:28:21.085Z,7.37
2019-05-10T14:30:57.251Z,8.20
2019-05-10T14:33:21.939Z,7.75
2019-05-10T14:35:55.196Z,9.20
2019-05-10T14:38:23.082Z,15.40
2019-05-10T14:40:52.564Z,8.40
2019-05-10T14:43:21.989Z,8.10
2019-05-10T14:45:51.402Z,10.70
2019-05-10T14:48:27.683Z,8.63
2019-05-10T14:50:51.833Z,12.98
2019-05-10T14:53:25.713Z,8.85
2019-05-10T14:55:52.291Z,9.45
2019-05-10T14:58:21.813Z,9.50
2019-05-10T15:00:52.289Z,8.93
2019-05-10T15:03:21.694Z,9.43
2019-05-10T15:05:55.635Z,9.03
2019-05-10T15:08:22.542Z,9.15
2019-05-10T15:10:51.899Z,8.88
2019-05-10T15:13:25.867Z,8.43
2019-05-10T15:15:52.456Z,7.15
2019-05-10T15:18:21.915Z,29.18
2019-05-10T15:20:52.346Z,17.93
2019-05-10T15:23:21.714Z,9.93
2019-05-10T15:25:57.161Z,8.73
2019-05-10T15:28:23.156Z,12.88
2019-05-10T15:30:52.921Z,33.77
2019-05-10T15:33:23.556Z,27.22
2019-05-10T15:35:53.933Z,28.73
2019-05-10T15:38:40.528Z,221.30
2019-05-10T15:41:07.124Z,82.55
2019-05-10T15:43:36.535Z,120.87
2019-05-10T15:46:05.917Z,70.25
2019-05-10T15:48:36.670Z,87.97
2019-05-10T15:51:11.059Z,38.70
2019-05-10T15:53:37.565Z,17.20
2019-05-10T15:56:07.023Z,19.70
2019-05-10T15:58:40.474Z,32.95
2019-05-10T16:01:07.614Z,25.47
2019-05-10T16:03:37.083Z,55.50
2019-05-10T16:06:06.491Z,25.87
2019-05-10T16:08:35.848Z,12.40
2019-05-10T16:11:05.310Z,17.80
2019-05-10T16:13:34.734Z,19.20
2019-05-10T16:16:04.103Z,10.60
2019-05-10T16:18:39.764Z,17.90
2019-05-10T16:21:04.676Z,13.83
2019-05-10T16:23:34.044Z,11.43
2019-05-10T16:26:03.559Z,9.80
2019-05-10T16:28:33.028Z,9.65
2019-05-10T16:31:02.442Z,13.55
2019-05-10T16:33:31.942Z,9.93
2019-05-10T16:36:01.605Z,12.55
2019-05-10T16:38:31.178Z,12.37
2019-05-10T16:41:00.808Z,12.57
2019-05-10T16:43:30.461Z,13.20
2019-05-10T16:45:59.934Z,16.87
2019-05-10T16:48:29.384Z,12.55
2019-05-10T16:51:03.899Z,14.03
2019-05-10T16:53:31.523Z,12.23
2019-05-10T16:56:01.352Z,13.73
2019-05-10T16:58:30.947Z,17.20
2019-05-10T17:01:00.425Z,17.37
2019-05-10T17:03:31.029Z,15.83
2019-05-10T17:06:03.919Z,15.03
2019-05-10T17:08:36.916Z,16.57
2019-05-10T17:11:09.530Z,19.17
2019-05-10T17:13:36.489Z,18.40
2019-05-10T17:16:06.191Z,20.27
2019-05-10T17:18:35.619Z,20.37
2019-05-10T17:21:06.142Z,21.95
2019-05-10T17:23:35.644Z,23.00
2019-05-10T17:26:05.134Z,30.53
2019-05-10T17:28:35.261Z,33.85
2019-05-10T17:31:07.914Z,30.60
2019-05-10T17:33:42.702Z,21.83
2019-05-10T17:36:08.929Z,24.40
2019-05-10T17:38:40.236Z,19.87
2019-05-10T17:41:09.728Z,20.70
2019-05-10T17:43:39.219Z,21.50
2019-05-10T17:46:12.778Z,23.37
2019-05-10T17:48:40.875Z,25.20
2019-05-10T17:51:12.182Z,62.90
2019-05-10T17:53:41.781Z,33.20
2019-05-10T17:56:11.244Z,46.03
2019-05-10T17:58:40.715Z,22.77
2019-05-10T18:01:10.172Z,30.33
2019-05-10T18:03:39.619Z,118.80
2019-05-10T18:06:22.994Z,30.00
2019-05-10T18:08:40.246Z,31.37
2019-05-10T18:11:09.747Z,87.73
2019-05-10T18:13:40.770Z,97.13
2019-05-10T18:16:11.016Z,128.33
2019-05-10T18:18:46.259Z,59.77
2019-05-10T18:21:16.045Z,46.60
2019-05-10T18:23:42.968Z,41.03
2019-05-10T18:26:12.514Z,36.37
2019-05-10T18:28:41.978Z,108.70
2019-05-10T18:31:11.391Z,25.27
2019-05-10T18:33:44.267Z,128.40
2019-05-10T18:36:11.949Z,136.82
2019-05-10T18:38:41.509Z,142.10
2019-05-10T18:41:11.874Z,74.37
2019-05-10T18:43:43.028Z,69.03
2019-05-10T18:46:12.441Z,50.92
2019-05-10T18:48:41.891Z,38.70
2019-05-10T18:51:11.396Z,29.93
2019-05-10T18:53:41.961Z,64.90
2019-05-10T18:56:12.934Z,22.27
2019-05-10T18:58:42.507Z,31.57
2019-05-10T19:01:11.986Z,27.67
2019-05-10T19:03:41.494Z,26.23
2019-05-10T19:06:13.123Z,27.03
2019-05-10T19:08:44.064Z,23.37
2019-05-10T19:11:13.204Z,24.50
2019-05-10T19:13:47.907Z,21.43
2019-05-10T19:16:13.877Z,24.10
2019-05-10T19:18:43.390Z,20.30
2019-05-10T19:21:12.960Z,89.50
2019-05-10T19:23:42.451Z,73.40
2019-05-10T19:26:12.007Z,99.10
2019-05-10T19:28:41.481Z,39.07
2019-05-10T19:31:11.030Z,73.13
2019-05-10T19:33:40.686Z,35.90
2019-05-10T19:36:13.343Z,28.93
2019-05-10T19:38:41.537Z,108.37
2019-05-10T19:41:10.985Z,64.87
2019-05-10T19:43:40.443Z,21.63
2019-05-10T19:46:10.001Z,23.70
2019-05-10T19:48:39.506Z,19.57
2019-05-10T19:51:10.038Z,19.33
2019-05-10T19:53:42.475Z,18.83
2019-05-10T19:56:11.368Z,20.60
2019-05-10T19:58:40.833Z,25.60
2019-05-10T20:01:10.520Z,26.20
2019-05-10T20:03:39.923Z,29.73
2019-05-10T20:06:09.435Z,37.00
2019-05-10T20:08:39.000Z,39.10
2019-05-10T20:11:08.404Z,29.83
2019-05-10T20:13:37.901Z,28.40
2019-05-10T20:16:07.515Z,26.33
2019-05-10T20:18:37.004Z,27.43
2019-05-10T20:21:06.492Z,22.63
2019-05-10T20:23:36.010Z,20.50
2019-05-10T20:26:05.468Z,17.93
2019-05-10T20:28:34.940Z,19.50
2019-05-10T20:31:04.641Z,19.57
2019-05-10T20:33:34.076Z,20.03
2019-05-10T20:36:03.574Z,21.47
2019-05-10T20:38:33.155Z,19.93
2019-05-10T20:41:02.780Z,22.83
2019-05-10T20:43:32.322Z,24.83
2019-05-10T20:46:01.813Z,23.47
2019-05-10T20:48:32.344Z,32.27
2019-05-10T20:51:01.922Z,42.60
2019-05-10T20:53:31.445Z,73.03
2019-05-10T20:56:02.305Z,173.23
2019-05-10T20:58:31.911Z,268.27
2019-05-10T21:01:01.323Z,164.17
2019-05-10T21:03:31.101Z,164.43
2019-05-10T21:06:00.967Z,246.53
2019-05-10T21:08:30.461Z,136.27
2019-05-10T21:10:59.950Z,60.43
2019-05-10T21:13:29.676Z,31.57
2019-05-10T21:15:59.338Z,24.93
2019-05-10T21:18:28.819Z,37.33
2019-05-10T21:20:58.447Z,22.30
2019-05-10T21:23:28.066Z,21.30
2019-05-10T21:25:57.738Z,26.30
2019-05-10T21:28:27.516Z,39.23
2019-05-10T21:30:57.139Z,38.37
2019-05-10T21:33:26.680Z,37.20
2019-05-10T21:35:56.163Z,33.37
2019-05-10T21:38:33.109Z,32.83
2019-05-10T21:40:56.836Z,41.77
2019-05-10T21:43:26.285Z,33.90
2019-05-10T21:45:55.695Z,33.00
2019-05-10T21:48:25.204Z,31.00
2019-05-10T21:50:54.912Z,27.17
2019-05-10T21:53:24.613Z,29.73
2019-05-10T21:55:54.297Z,30.73
2019-05-10T21:58:23.832Z,30.23
2019-05-10T22:00:53.371Z,33.20
2019-05-10T22:03:24.664Z,28.47
2019-05-10T22:05:54.145Z,26.23
2019-05-10T22:08:23.637Z,23.17
2019-05-10T22:10:53.220Z,22.10
2019-05-10T22:13:22.873Z,50.70
2019-05-10T22:15:52.342Z,26.10
2019-05-10T22:18:21.887Z,19.47
2019-05-10T22:20:51.474Z,19.07
2019-05-10T22:23:20.984Z,25.47
2019-05-10T22:25:50.558Z,64.63
2019-05-10T22:28:20.224Z,82.73
2019-05-10T22:30:49.792Z,34.67
2019-05-10T22:33:19.189Z,103.00
2019-05-10T22:35:48.691Z,27.83
2019-05-10T22:38:18.265Z,121.83
2019-05-10T22:40:47.799Z,64.70
2019-05-10T22:43:17.231Z,198.37
2019-05-10T22:45:46.629Z,462.70
2019-05-10T22:48:16.271Z,57.77
2019-05-10T22:50:45.708Z,81.23
2019-05-10T22:53:15.142Z,376.17
2019-05-10T22:55:44.622Z,388.50
2019-05-10T22:58:14.061Z,363.53
2019-05-10T23:00:43.714Z,722.17
2019-05-10T23:03:13.195Z,416.97
2019-05-10T23:05:42.777Z,220.93
2019-05-10T23:08:12.256Z,36.87
2019-05-10T23:10:41.995Z,52.07
2019-05-10T23:13:11.476Z,177.07
2019-05-10T23:15:40.968Z,363.67
2019-05-10T23:18:10.443Z,253.70
2019-05-10T23:20:39.862Z,223.47
2019-05-10T23:23:09.357Z,43.90
2019-05-10T23:25:38.877Z,103.33
2019-05-10T23:28:08.375Z,109.10
2019-05-10T23:30:37.888Z,147.30
2019-05-10T23:33:07.354Z,80.17
2019-05-10T23:35:37.014Z,223.53
2019-05-10T23:38:06.543Z,94.97
2019-05-10T23:40:36.028Z,149.10
2019-05-10T23:43:05.589Z,154.73
2019-05-10T23:45:35.080Z,124.03
2019-05-10T23:48:04.557Z,146.20
2019-05-10T23:50:34.049Z,44.77
2019-05-10T23:53:03.553Z,118.90
2019-05-10T23:55:33.030Z,149.90
2019-05-10T23:58:02.540Z,25.50
